createdAt,value
2018-09-13T12:02:13.878Z,6.63
2018-09-13T12:04:45.048Z,7.17
2018-09-13T12:07:13.938Z,7.30
2018-09-13T12:09:46.111Z,8.60
2018-09-13T12:12:15.389Z,9.10
2018-09-13T12:14:44.610Z,8.50
2018-09-13T12:17:13.199Z,9.10
2018-09-13T12:19:42.100Z,9.13
2018-09-13T12:22:11.279Z,10.50
2018-09-13T12:24:39.775Z,9.10
2018-09-13T12:27:08.965Z,9.70
2018-09-13T12:29:37.442Z,9.70
2018-09-13T12:32:06.667Z,8.73
2018-09-13T12:34:35.705Z,9.03
2018-09-13T12:37:04.504Z,9.47
2018-09-13T12:39:33.120Z,10.37
2018-09-13T12:42:01.778Z,8.67
2018-09-13T12:44:30.619Z,9.10
2018-09-13T12:46:59.140Z,7.40
2018-09-13T12:49:28.197Z,4.77
2018-09-13T12:51:56.693Z,5.00
2018-09-13T12:54:26.000Z,5.17
2018-09-13T12:56:55.152Z,5.03
2018-09-13T12:59:23.973Z,4.60
2018-09-13T13:01:52.481Z,5.67
2018-09-13T13:04:21.831Z,5.30
2018-09-13T13:06:51.089Z,5.87
2018-09-13T13:09:19.522Z,5.80
2018-09-13T13:11:48.434Z,5.40
2018-09-13T13:14:16.922Z,6.47
2018-09-13T13:16:45.402Z,5.97
2018-09-13T13:19:13.862Z,6.60
2018-09-13T13:21:42.460Z,6.90
2018-09-13T13:24:10.898Z,7.33
2018-09-13T13:26:40.402Z,6.87
2018-09-13T13:29:09.294Z,6.83
2018-09-13T13:31:37.827Z,7.83
2018-09-13T13:34:06.496Z,7.80
2018-09-13T13:36:34.969Z,7.30
2018-09-13T13:39:03.885Z,9.20
2018-09-13T13:41:32.643Z,7.67
2018-09-13T13:44:01.099Z,8.80
2018-09-13T13:46:30.150Z,8.40
2018-09-13T13:48:59.380Z,7.27
2018-09-13T13:51:27.872Z,7.30
2018-09-13T13:53:56.378Z,6.70
2018-09-13T13:56:24.871Z,7.57
2018-09-13T13:58:53.560Z,8.40
2018-09-13T14:01:22.024Z,7.80
2018-09-13T14:03:51.240Z,7.60
2018-09-13T14:06:20.230Z,7.63
2018-09-13T14:08:48.829Z,7.43
2018-09-13T14:11:17.483Z,8.70
2018-09-13T14:13:45.985Z,6.23
2018-09-13T14:16:15.283Z,6.50
2018-09-13T14:18:44.516Z,6.97
2018-09-13T14:21:13.697Z,7.90
2018-09-13T14:23:42.342Z,7.77
2018-09-13T14:26:10.907Z,7.93
2018-09-13T14:28:39.501Z,8.23
2018-09-13T14:31:08.037Z,8.50
2018-09-13T14:33:36.593Z,8.67
2018-09-13T14:36:05.270Z,8.20
2018-09-13T14:38:34.567Z,8.40
2018-09-13T14:41:03.852Z,7.30
2018-09-13T14:43:33.139Z,9.20
2018-09-13T14:46:01.707Z,8.80
2018-09-13T14:48:30.591Z,7.93
2018-09-13T14:50:59.074Z,7.70
2018-09-13T14:53:27.576Z,7.83
2018-09-13T14:55:56.321Z,8.03
2018-09-13T14:58:24.827Z,8.67
2018-09-13T15:00:54.069Z,8.07
2018-09-13T15:03:23.397Z,6.67
2018-09-13T15:05:52.374Z,6.17
2018-09-13T15:08:21.591Z,6.50
2018-09-13T15:10:50.394Z,6.10
2018-09-13T15:13:19.251Z,5.60
2018-09-13T15:15:48.375Z,5.80
2018-09-13T15:18:17.614Z,5.70
2018-09-13T15:20:46.105Z,7.97
2018-09-13T15:23:15.107Z,7.50
2018-09-13T15:25:44.356Z,8.20
2018-09-13T15:28:12.829Z,8.03
2018-09-13T15:30:41.932Z,7.73
2018-09-13T15:33:10.437Z,7.10
2018-09-13T15:35:39.630Z,7.37
2018-09-13T15:38:08.189Z,6.87
2018-09-13T15:40:36.841Z,7.87
2018-09-13T15:43:05.343Z,8.17
2018-09-13T15:45:34.535Z,7.90
2018-09-13T15:48:03.751Z,7.47
2018-09-13T15:50:32.210Z,5.40
2018-09-13T15:53:01.494Z,4.47
2018-09-13T15:55:30.031Z,4.47
2018-09-13T15:57:58.698Z,4.50
2018-09-13T16:00:27.152Z,5.90
2018-09-13T16:02:56.277Z,6.03
2018-09-13T16:05:25.531Z,6.50
2018-09-13T16:07:54.133Z,6.43
2018-09-13T16:10:22.783Z,6.53
2018-09-13T16:12:51.295Z,6.67
2018-09-13T16:15:19.733Z,5.80
2018-09-13T16:17:48.618Z,5.60
2018-09-13T16:20:17.220Z,6.37
2018-09-13T16:22:45.713Z,5.90
2018-09-13T16:25:14.762Z,4.93
2018-09-13T16:27:43.453Z,3.90
2018-09-13T16:30:12.221Z,3.87
2018-09-13T16:32:40.831Z,4.03
2018-09-13T16:35:09.796Z,3.30
2018-09-13T16:37:43.401Z,4.00
2018-09-13T16:40:17.227Z,3.77
2018-09-13T16:42:53.270Z,3.20
2018-09-13T16:45:25.402Z,3.20
2018-09-13T16:47:58.320Z,3.40
2018-09-13T16:50:27.878Z,3.50
2018-09-13T16:52:57.015Z,2.97
2018-09-13T16:55:26.086Z,3.07
2018-09-13T16:57:55.308Z,2.50
2018-09-13T17:00:25.834Z,3.17
2018-09-13T17:02:56.123Z,3.70
2018-09-13T17:05:24.761Z,3.33
2018-09-13T17:07:55.267Z,2.60
2018-09-13T17:10:23.877Z,3.10
2018-09-13T17:12:52.971Z,3.43
2018-09-13T17:15:22.470Z,3.17
2018-09-13T17:17:51.306Z,3.00
2018-09-13T17:20:21.728Z,2.90
2018-09-13T17:22:50.884Z,3.10
2018-09-13T17:25:20.080Z,3.40
2018-09-13T17:27:48.588Z,4.07
2018-09-13T17:30:17.781Z,3.40
2018-09-13T17:32:47.900Z,3.20
2018-09-13T17:35:16.420Z,3.40
2018-09-13T17:37:44.933Z,3.53
2018-09-13T17:40:14.711Z,4.27
2018-09-13T17:42:44.006Z,3.90
2018-09-13T17:45:12.986Z,3.50
2018-09-13T17:47:42.200Z,3.43
2018-09-13T17:50:10.697Z,4.23
2018-09-13T17:52:39.190Z,4.33
2018-09-13T17:55:09.134Z,4.00
2018-09-13T17:57:38.509Z,3.10
2018-09-13T18:00:08.666Z,3.40
2018-09-13T18:02:37.135Z,3.20
2018-09-13T18:05:06.303Z,3.70
2018-09-13T18:07:34.915Z,3.93
2018-09-13T18:10:04.495Z,3.17
2018-09-13T18:12:33.800Z,3.67
2018-09-13T18:15:03.060Z,4.03
2018-09-13T18:17:32.386Z,3.30
2018-09-13T18:20:01.493Z,5.00
2018-09-13T18:22:30.801Z,6.03
2018-09-13T18:24:59.678Z,6.03
2018-09-13T18:27:30.561Z,6.03
2018-09-13T18:29:59.500Z,7.47
2018-09-13T18:32:32.255Z,5.40
2018-09-13T18:35:00.892Z,5.47
2018-09-13T18:37:29.451Z,7.00
2018-09-13T18:39:57.991Z,4.53
2018-09-13T18:42:26.833Z,4.77
2018-09-13T18:44:55.505Z,3.80
2018-09-13T18:47:24.094Z,4.67
2018-09-13T18:49:53.484Z,3.80
2018-09-13T18:52:22.034Z,3.97
2018-09-13T18:54:51.079Z,3.83
2018-09-13T18:57:19.675Z,3.63
2018-09-13T18:59:48.426Z,3.80
2018-09-13T19:02:16.955Z,4.50
2018-09-13T19:04:45.736Z,3.90
2018-09-13T19:07:14.893Z,3.90
2018-09-13T19:09:44.127Z,4.23
2018-09-13T19:12:12.723Z,4.60
2018-09-13T19:14:41.993Z,3.93
2018-09-13T19:17:11.313Z,4.70
2018-09-13T19:19:40.768Z,3.77
2018-09-13T19:22:09.275Z,4.07
2018-09-13T19:24:37.891Z,3.43
2018-09-13T19:27:06.480Z,3.70
2018-09-13T19:29:35.138Z,3.87
2018-09-13T19:32:03.886Z,3.70
2018-09-13T19:34:32.739Z,3.97
2018-09-13T19:37:02.584Z,3.57
2018-09-13T19:39:31.258Z,3.40
2018-09-13T19:41:59.869Z,3.47
2018-09-13T19:44:28.514Z,3.40
2018-09-13T19:46:57.368Z,3.60
2018-09-13T19:49:26.643Z,3.53
2018-09-13T19:51:56.079Z,3.93
2018-09-13T19:54:24.560Z,3.10
2018-09-13T19:56:53.239Z,3.50
2018-09-13T19:59:21.727Z,3.37
2018-09-13T20:01:50.879Z,3.03
2018-09-13T20:04:20.105Z,3.23
2018-09-13T20:06:48.587Z,3.93
2018-09-13T20:09:17.118Z,3.60
2018-09-13T20:11:45.874Z,4.30
2018-09-13T20:14:14.498Z,4.03
2018-09-13T20:16:43.316Z,3.27
2018-09-13T20:19:11.806Z,3.67
2018-09-13T20:21:42.066Z,4.03
2018-09-13T20:24:10.525Z,2.90
2018-09-13T20:26:39.466Z,3.00
2018-09-13T20:29:08.664Z,3.10
2018-09-13T20:31:37.869Z,3.03
2018-09-13T20:34:06.504Z,2.67
2018-09-13T20:36:39.020Z,3.13
2018-09-13T20:39:09.862Z,3.23
2018-09-13T20:41:38.544Z,3.00
2018-09-13T20:44:08.168Z,2.87
2018-09-13T20:46:36.693Z,3.97
2018-09-13T20:49:05.219Z,3.27
2018-09-13T20:51:33.808Z,3.07
2018-09-13T20:54:02.275Z,3.67
2018-09-13T20:56:31.391Z,2.67
2018-09-13T20:58:59.823Z,2.80
2018-09-13T21:01:28.993Z,2.50
2018-09-13T21:03:57.620Z,2.73
2018-09-13T21:06:26.342Z,2.40
2018-09-13T21:08:54.802Z,2.77
2018-09-13T21:11:23.262Z,2.83
2018-09-13T21:13:51.797Z,2.80
2018-09-13T21:16:20.494Z,2.80
2018-09-13T21:18:49.724Z,3.23
2018-09-13T21:21:18.257Z,3.10
2018-09-13T21:23:46.970Z,3.30
2018-09-13T21:26:15.489Z,3.50
2018-09-13T21:28:44.981Z,2.60
2018-09-13T21:31:14.015Z,2.73
2018-09-13T21:33:42.511Z,2.87
2018-09-13T21:36:10.956Z,3.10
2018-09-13T21:38:39.541Z,2.97
2018-09-13T21:41:08.012Z,3.70
2018-09-13T21:43:36.654Z,3.20
2018-09-13T21:46:05.771Z,3.10
2018-09-13T21:48:34.855Z,3.50
2018-09-13T21:51:03.405Z,3.37
2018-09-13T21:53:32.169Z,3.60
2018-09-13T21:56:00.683Z,3.20
2018-09-13T21:58:29.873Z,3.87
2018-09-13T22:00:58.331Z,3.60
2018-09-13T22:03:26.845Z,3.40
2018-09-13T22:05:59.222Z,3.37
2018-09-13T22:08:27.835Z,4.20
2018-09-13T22:10:57.063Z,3.70
2018-09-13T22:13:30.318Z,3.50
2018-09-13T22:15:58.770Z,3.40
2018-09-13T22:18:27.925Z,3.70
2018-09-13T22:20:56.902Z,3.60
2018-09-13T22:23:26.435Z,3.87
2018-09-13T22:25:54.868Z,3.43
2018-09-13T22:28:23.744Z,3.80
2018-09-13T22:30:52.203Z,3.40
2018-09-13T22:33:21.587Z,4.17
2018-09-13T22:35:50.652Z,4.20
2018-09-13T22:38:19.106Z,3.70
2018-09-13T22:40:48.183Z,4.47
2018-09-13T22:43:20.833Z,4.77
2018-09-13T22:45:49.860Z,4.63
2018-09-13T22:48:18.299Z,5.10
2018-09-13T22:50:46.948Z,4.93
2018-09-13T22:53:16.178Z,5.30
2018-09-13T22:55:44.550Z,5.70
2018-09-13T22:58:14.000Z,5.80
2018-09-13T23:00:42.460Z,6.00
2018-09-13T23:03:10.918Z,5.93
2018-09-13T23:05:40.685Z,6.60
2018-09-13T23:08:09.105Z,6.90
2018-09-13T23:10:38.983Z,6.83
2018-09-13T23:13:08.144Z,6.73
2018-09-13T23:15:36.624Z,7.07
2018-09-13T23:18:05.830Z,6.67
2018-09-13T23:20:35.264Z,7.80
2018-09-13T23:23:04.131Z,8.20
2018-09-13T23:25:32.650Z,8.40
2018-09-13T23:28:01.912Z,8.37
2018-09-13T23:30:31.152Z,8.87
2018-09-13T23:32:59.638Z,8.43
2018-09-13T23:35:28.819Z,9.23
2018-09-13T23:38:03.934Z,8.37
2018-09-13T23:40:33.003Z,8.43
2018-09-13T23:43:02.153Z,7.77
2018-09-13T23:45:31.340Z,9.43
2018-09-13T23:48:00.674Z,10.13
2018-09-13T23:50:29.976Z,9.47
2018-09-13T23:52:58.422Z,10.53
2018-09-13T23:55:27.495Z,10.43
2018-09-13T23:57:56.709Z,11.10
